createdAt,value
2018-11-28T00:00:17.263Z,54.26
2018-11-28T00:02:45.830Z,54.65
2018-11-28T00:05:14.371Z,54.07
2018-11-28T00:07:42.970Z,54.46
2018-11-28T00:10:13.459Z,54.42
2018-11-28T00:12:42.461Z,54.43
2018-11-28T00:15:13.850Z,54.16
2018-11-28T00:17:42.441Z,54.44
2018-11-28T00:20:15.382Z,54.18
2018-11-28T00:22:44.195Z,53.87
2018-11-28T00:25:13.427Z,54.11
2018-11-28T00:27:41.997Z,53.89
2018-11-28T00:30:16.951Z,54.08
2018-11-28T00:32:45.540Z,54.09
2018-11-28T00:35:16.889Z,54.79
2018-11-28T00:37:45.403Z,54.09
2018-11-28T00:40:14.864Z,54.32
2018-11-28T00:42:43.474Z,54.41
2018-11-28T00:45:13.955Z,54.75
2018-11-28T00:47:42.538Z,54.79
2018-11-28T00:50:12.999Z,54.95
2018-11-28T00:52:41.618Z,54.28
2018-11-28T00:55:13.516Z,55.18
2018-11-28T00:57:42.159Z,55.10
2018-11-28T01:00:17.063Z,54.68
2018-11-28T01:02:45.639Z,54.91
2018-11-28T01:05:14.918Z,55.23
2018-11-28T01:07:44.160Z,54.73
2018-11-28T01:10:14.629Z,55.18
2018-11-28T01:12:43.167Z,55.27
2018-11-28T01:15:12.868Z,55.10
2018-11-28T01:17:41.445Z,54.96
2018-11-28T01:20:11.527Z,55.01
2018-11-28T01:22:40.089Z,55.37
2018-11-28T01:25:10.654Z,55.65
2018-11-28T01:27:39.174Z,55.44
2018-11-28T01:30:11.711Z,55.38
2018-11-28T01:32:40.281Z,55.27
2018-11-28T01:35:13.885Z,55.85
2018-11-28T01:37:42.654Z,55.64
2018-11-28T01:40:13.284Z,55.39
2018-11-28T01:42:41.807Z,55.18
2018-11-28T01:45:12.814Z,55.71
2018-11-28T01:47:41.505Z,55.35
2018-11-28T01:50:12.145Z,55.57
2018-11-28T01:52:40.687Z,55.67
2018-11-28T01:55:10.313Z,55.04
2018-11-28T01:57:38.948Z,55.51
2018-11-28T02:00:16.033Z,55.68
2018-11-28T02:02:44.595Z,55.80
2018-11-28T02:05:13.234Z,55.81
2018-11-28T02:07:41.779Z,55.30
2018-11-28T02:10:11.722Z,55.33
2018-11-28T02:12:40.478Z,55.21
2018-11-28T02:15:10.665Z,55.43
2018-11-28T02:17:39.195Z,55.65
2018-11-28T02:20:09.879Z,55.88
2018-11-28T02:22:38.573Z,55.25
2018-11-28T02:25:08.250Z,55.49
2018-11-28T02:27:36.780Z,55.67
2018-11-28T02:30:07.479Z,55.89
2018-11-28T02:32:36.038Z,55.56
2018-11-28T02:35:05.335Z,55.17
2018-11-28T02:37:33.895Z,55.93
2018-11-28T02:40:02.477Z,55.25
2018-11-28T02:42:30.954Z,55.48
2018-11-28T02:44:59.499Z,55.89
2018-11-28T02:47:27.987Z,55.78
2018-11-28T02:49:56.507Z,55.67
2018-11-28T02:52:25.035Z,55.59
2018-11-28T02:54:53.577Z,55.73
2018-11-28T02:57:22.147Z,55.87
2018-11-28T02:59:50.667Z,56.39
2018-11-28T03:02:19.165Z,55.91
2018-11-28T03:04:47.673Z,56.31
2018-11-28T03:07:16.212Z,56.00
2018-11-28T03:09:44.756Z,56.50
2018-11-28T03:12:13.294Z,56.61
2018-11-28T03:14:41.864Z,56.17
2018-11-28T03:17:14.494Z,56.15
2018-11-28T03:19:43.082Z,56.30
2018-11-28T03:22:11.613Z,56.04
2018-11-28T03:24:40.159Z,56.86
2018-11-28T03:27:08.759Z,56.33
2018-11-28T03:29:37.296Z,56.49
2018-11-28T03:32:05.904Z,56.74
2018-11-28T03:34:34.537Z,56.99
2018-11-28T03:37:03.111Z,56.38
2018-11-28T03:39:31.687Z,57.09
2018-11-28T03:42:00.247Z,56.93
2018-11-28T03:44:28.873Z,56.77
2018-11-28T03:46:57.456Z,56.29
2018-11-28T03:49:26.037Z,56.66
2018-11-28T03:51:54.579Z,57.44
2018-11-28T03:54:23.134Z,57.24
2018-11-28T03:56:51.739Z,56.90
2018-11-28T03:59:20.310Z,56.75
2018-11-28T04:01:48.936Z,56.78
2018-11-28T04:04:17.478Z,57.47
2018-11-28T04:06:46.064Z,57.11
2018-11-28T04:09:14.699Z,56.55
2018-11-28T04:11:43.293Z,56.85
2018-11-28T04:14:11.891Z,56.98
2018-11-28T04:16:40.507Z,57.20
2018-11-28T04:19:09.132Z,56.66
2018-11-28T04:21:37.698Z,56.97
2018-11-28T04:24:06.266Z,56.74
2018-11-28T04:26:34.879Z,57.27
2018-11-28T04:29:03.428Z,56.72
2018-11-28T04:31:32.060Z,56.65
2018-11-28T04:34:00.593Z,57.14
2018-11-28T04:36:29.178Z,57.00
2018-11-28T04:38:57.740Z,56.46
2018-11-28T04:41:26.374Z,56.76
2018-11-28T04:43:54.915Z,56.95
2018-11-28T04:46:23.500Z,57.12
2018-11-28T04:48:52.079Z,56.89
2018-11-28T04:51:20.722Z,57.46
2018-11-28T04:53:49.322Z,57.71
2018-11-28T04:56:17.936Z,57.10
2018-11-28T04:58:46.470Z,57.33
2018-11-28T05:01:15.075Z,57.07
2018-11-28T05:03:43.641Z,57.00
2018-11-28T05:06:13.449Z,57.94
2018-11-28T05:08:41.991Z,57.29
2018-11-28T05:11:10.586Z,56.86
2018-11-28T05:13:39.205Z,57.31
2018-11-28T05:16:07.794Z,56.93
2018-11-28T05:18:37.408Z,56.83
2018-11-28T05:21:06.339Z,56.65
2018-11-28T05:23:35.977Z,56.83
2018-11-28T05:26:04.685Z,56.83
2018-11-28T05:28:33.282Z,57.04
2018-11-28T05:31:01.963Z,56.50
2018-11-28T05:33:30.589Z,56.09
2018-11-28T05:35:59.201Z,56.82
2018-11-28T05:38:27.823Z,56.67
2018-11-28T05:40:56.472Z,56.45
2018-11-28T05:43:25.073Z,56.79
2018-11-28T05:45:53.666Z,56.00
2018-11-28T05:48:22.247Z,55.74
2018-11-28T05:50:50.970Z,56.54
2018-11-28T05:53:19.632Z,56.53
2018-11-28T05:55:48.224Z,55.99
2018-11-28T05:58:16.803Z,56.78
2018-11-28T06:00:45.480Z,56.08
2018-11-28T06:03:14.218Z,56.16
2018-11-28T06:05:43.332Z,56.26
2018-11-28T06:08:11.901Z,55.91
2018-11-28T06:10:40.534Z,55.71
2018-11-28T06:13:09.175Z,56.08
2018-11-28T06:15:37.757Z,56.19
2018-11-28T06:18:07.604Z,55.92
2018-11-28T06:20:36.216Z,55.35
2018-11-28T06:23:04.863Z,55.98
2018-11-28T06:25:33.502Z,55.84
2018-11-28T06:28:02.121Z,55.99
2018-11-28T06:30:30.729Z,56.14
2018-11-28T06:32:59.790Z,55.67
2018-11-28T06:35:28.387Z,55.69
2018-11-28T06:37:56.968Z,55.84
2018-11-28T06:40:25.527Z,55.59
2018-11-28T06:42:54.047Z,55.68
2018-11-28T06:45:23.445Z,55.62
2018-11-28T06:47:51.993Z,55.92
2018-11-28T06:50:20.731Z,56.20
2018-11-28T06:52:50.511Z,55.49
2018-11-28T06:55:23.997Z,55.42
2018-11-28T06:57:52.604Z,55.44
2018-11-28T07:00:24.426Z,55.64
2018-11-28T07:02:54.226Z,55.96
2018-11-28T07:05:25.017Z,55.95
2018-11-28T07:07:57.311Z,55.80
2018-11-28T07:10:26.632Z,55.95
2018-11-28T07:12:55.275Z,55.49
2018-11-28T07:15:26.181Z,55.73
2018-11-28T07:17:54.765Z,55.14
2018-11-28T07:20:23.383Z,55.37
2018-11-28T07:22:51.957Z,55.67
2018-11-28T07:25:20.581Z,55.32
2018-11-28T07:27:49.626Z,55.87
2018-11-28T07:30:22.208Z,55.44
2018-11-28T07:32:52.269Z,55.38
2018-11-28T07:35:20.902Z,55.23
2018-11-28T07:37:52.088Z,55.82
2018-11-28T07:40:28.692Z,55.36
2018-11-28T07:43:12.128Z,55.15
2018-11-28T07:45:46.836Z,55.73
2018-11-28T07:48:17.284Z,55.42
2018-11-28T07:50:45.959Z,56.01
2018-11-28T07:53:16.733Z,55.36
2018-11-28T07:55:45.330Z,56.06
2018-11-28T07:58:13.866Z,55.63
2018-11-28T08:00:56.273Z,55.25
2018-11-28T08:03:24.810Z,55.29
2018-11-28T08:05:53.329Z,55.30
2018-11-28T08:08:28.073Z,55.95
2018-11-28T08:13:49.845Z,55.36
2018-11-28T08:16:18.506Z,55.19
2018-11-28T08:18:47.150Z,55.08
2018-11-28T08:21:15.774Z,55.21
2018-11-28T08:23:44.428Z,55.16
2018-11-28T08:26:13.038Z,55.04
2018-11-28T08:28:41.923Z,55.33
2018-11-28T08:31:10.489Z,54.99
2018-11-28T08:33:39.173Z,54.49
2018-11-28T08:36:07.802Z,54.56
2018-11-28T08:38:36.454Z,54.52
2018-11-28T08:41:05.105Z,54.16
2018-11-28T08:43:41.560Z,54.26
2018-11-28T08:46:23.432Z,53.86
2018-11-28T08:48:53.850Z,53.66
2018-11-28T08:51:22.972Z,53.69
2018-11-28T08:53:52.657Z,53.51
2018-11-28T08:56:21.551Z,52.88
2018-11-28T08:58:51.113Z,52.99
2018-11-28T09:01:23.196Z,52.77
2018-11-28T09:03:53.200Z,52.58
2018-11-28T09:06:25.610Z,52.07
2018-11-28T09:08:54.615Z,51.95
2018-11-28T09:11:23.427Z,52.01
2018-11-28T09:13:52.580Z,52.16
2018-11-28T09:16:24.180Z,51.79
2018-11-28T09:18:54.797Z,52.18
2018-11-28T09:21:23.783Z,52.45
2018-11-28T09:23:52.967Z,52.42
2018-11-28T09:26:21.878Z,52.83
2018-11-28T09:28:50.695Z,52.61
2018-11-28T09:31:20.301Z,52.96
2018-11-28T09:33:49.393Z,53.18
2018-11-28T09:36:18.310Z,53.16
2018-11-28T09:38:47.541Z,52.73
2018-11-28T09:41:16.736Z,52.89
2018-11-28T09:43:45.732Z,53.10
2018-11-28T09:46:14.954Z,53.10
2018-11-28T09:48:44.197Z,53.54
2018-11-28T09:51:13.393Z,53.18
2018-11-28T09:53:43.590Z,53.10
2018-11-28T09:56:12.559Z,52.97
2018-11-28T09:58:43.375Z,53.21
2018-11-28T10:01:12.969Z,52.63
2018-11-28T10:03:42.450Z,52.71
2018-11-28T10:06:12.113Z,53.02
2018-11-28T10:08:41.208Z,53.07
2018-11-28T10:11:10.460Z,53.32
2018-11-28T10:13:39.721Z,53.26
2018-11-28T10:18:49.133Z,53.34
2018-11-28T10:21:18.319Z,53.31
2018-11-28T10:23:47.501Z,53.23
2018-11-28T10:26:16.959Z,54.63
2018-11-28T10:28:46.073Z,54.10
2018-11-28T10:31:15.477Z,54.77
2018-11-28T10:33:44.566Z,54.41
2018-11-28T10:36:14.030Z,54.50
2018-11-28T10:38:45.734Z,54.39
2018-11-28T10:41:14.979Z,54.37
2018-11-28T10:43:44.013Z,54.00
2018-11-28T10:46:13.113Z,53.82
2018-11-28T10:48:43.561Z,53.23
2018-11-28T10:51:12.641Z,52.85
2018-11-28T10:53:41.850Z,52.22
2018-11-28T10:56:11.018Z,52.10
2018-11-28T10:58:40.294Z,51.41
2018-11-28T11:01:14.472Z,51.36
2018-11-28T11:03:48.584Z,51.05
2018-11-28T11:06:22.693Z,50.92
2018-11-28T11:08:57.245Z,50.32
2018-11-28T11:11:27.175Z,50.62
2018-11-28T11:14:01.815Z,50.31
2018-11-28T11:16:32.334Z,50.08
2018-11-28T11:19:01.353Z,50.20
2018-11-28T11:21:31.928Z,49.73
2018-11-28T11:24:01.295Z,49.67
2018-11-28T11:26:30.545Z,49.85
2018-11-28T11:28:59.673Z,49.20
2018-11-28T11:31:28.630Z,49.76
2018-11-28T11:33:57.560Z,49.19
2018-11-28T11:36:26.578Z,49.41
2018-11-28T11:38:55.512Z,49.10
2018-11-28T11:41:24.561Z,49.32
2018-11-28T11:43:53.504Z,49.26
2018-11-28T11:46:23.111Z,48.83
2018-11-28T11:48:52.052Z,48.84
2018-11-28T11:51:20.887Z,48.68
2018-11-28T11:53:50.176Z,48.08
2018-11-28T11:56:19.227Z,47.97
2018-11-28T11:58:48.130Z,48.39
2018-11-28T12:01:17.354Z,48.28
2018-11-28T12:03:46.345Z,48.20
2018-11-28T12:06:15.289Z,48.11
2018-11-28T12:08:45.256Z,47.65
2018-11-28T12:11:14.006Z,47.92
2018-11-28T12:13:42.857Z,47.92
2018-11-28T12:16:11.850Z,47.87
2018-11-28T12:18:42.339Z,47.42
2018-11-28T12:21:11.894Z,47.41
2018-11-28T12:23:40.983Z,47.25
2018-11-28T12:26:10.457Z,47.22
2018-11-28T12:28:39.852Z,46.91
2018-11-28T12:31:09.119Z,47.08
2018-11-28T12:33:37.897Z,47.05
2018-11-28T12:36:07.101Z,47.09
2018-11-28T12:38:37.208Z,47.39
2018-11-28T12:41:06.835Z,47.12
2018-11-28T12:43:35.727Z,47.23
2018-11-28T12:46:04.440Z,47.23
2018-11-28T12:48:33.295Z,47.50
2018-11-28T12:51:02.175Z,47.54
2018-11-28T12:53:31.178Z,47.71
2018-11-28T12:56:01.415Z,47.52
2018-11-28T12:58:30.393Z,47.77
2018-11-28T13:01:00.087Z,47.71
2018-11-28T13:03:37.433Z,47.45
2018-11-28T13:06:07.332Z,47.53
2018-11-28T13:08:45.553Z,47.11
2018-11-28T13:11:14.671Z,47.12
2018-11-28T13:13:44.132Z,47.00
2018-11-28T13:16:13.269Z,47.32
2018-11-28T13:18:42.957Z,47.55
2018-11-28T13:21:34.505Z,47.39
2018-11-28T13:24:26.524Z,47.50
2018-11-28T13:27:18.212Z,47.57
2018-11-28T13:29:47.054Z,46.94
2018-11-28T13:32:19.535Z,47.64
2018-11-28T13:34:48.904Z,47.09
2018-11-28T13:37:22.322Z,47.92
2018-11-28T13:39:51.365Z,47.78
2018-11-28T13:42:20.591Z,47.72
2018-11-28T13:44:50.080Z,47.57
2018-11-28T13:47:19.166Z,47.72
2018-11-28T13:49:48.058Z,47.96
2018-11-28T13:52:17.034Z,47.68
2018-11-28T13:55:37.938Z,47.87
2018-11-28T13:57:14.998Z,48.10
2018-11-28T13:59:44.209Z,48.15
2018-11-28T14:02:13.022Z,48.03
2018-11-28T14:04:42.063Z,48.34
2018-11-28T14:07:11.008Z,48.09
2018-11-28T14:09:39.996Z,48.42
2018-11-28T14:12:08.697Z,48.22
2018-11-28T14:14:38.082Z,48.31
2018-11-28T14:17:10.486Z,48.61
2018-11-28T14:19:39.735Z,48.46
2018-11-28T14:22:08.604Z,48.80
2018-11-28T14:24:37.581Z,48.96
2018-11-28T14:27:06.842Z,48.93
2018-11-28T14:29:36.243Z,48.94
2018-11-28T14:32:05.546Z,48.88
2018-11-28T14:34:34.804Z,48.89
2018-11-28T14:37:03.647Z,49.03
2018-11-28T14:39:37.083Z,49.13
2018-11-28T14:42:06.247Z,49.43
2018-11-28T14:44:35.670Z,49.35
2018-11-28T14:47:10.835Z,49.23
2018-11-28T14:49:39.491Z,49.33
2018-11-28T14:52:08.033Z,49.10
2018-11-28T14:54:36.597Z,49.51
2018-11-28T14:57:05.316Z,49.92
2018-11-28T14:59:34.000Z,50.12
2018-11-28T15:02:02.515Z,50.04
2018-11-28T15:04:31.050Z,49.99
2018-11-28T15:07:01.358Z,50.16
2018-11-28T15:09:36.802Z,50.53
2018-11-28T15:12:11.652Z,50.36
2018-11-28T15:14:38.213Z,50.71
2018-11-28T15:17:07.000Z,50.66
2018-11-28T15:19:35.682Z,51.31
2018-11-28T15:22:04.445Z,51.16
2018-11-28T15:24:33.123Z,51.18
2018-11-28T15:27:01.891Z,50.85
2018-11-28T15:29:30.707Z,51.19
2018-11-28T15:31:59.554Z,51.19
2018-11-28T15:34:28.256Z,51.24
2018-11-28T15:36:56.931Z,51.11
2018-11-28T15:39:25.566Z,50.95
2018-11-28T15:41:54.183Z,51.25
2018-11-28T15:44:22.933Z,50.89
2018-11-28T15:46:51.451Z,51.27
2018-11-28T15:49:20.252Z,50.98
2018-11-28T15:51:49.110Z,51.37
2018-11-28T15:54:17.781Z,51.12
2018-11-28T15:56:46.527Z,51.39
2018-11-28T15:59:15.063Z,51.37
2018-11-28T16:01:43.729Z,51.52
2018-11-28T16:04:12.238Z,51.36
2018-11-28T16:06:40.970Z,51.62
2018-11-28T16:09:13.942Z,51.97
2018-11-28T16:11:42.731Z,53.57
2018-11-28T16:14:11.265Z,54.86
2018-11-28T16:16:40.275Z,56.32
2018-11-28T16:19:08.951Z,56.96
2018-11-28T16:21:37.814Z,58.04
2018-11-28T16:24:06.852Z,59.58
2018-11-28T16:26:35.349Z,61.50
2018-11-28T16:29:03.932Z,61.65
2018-11-28T16:31:32.521Z,61.59
2018-11-28T16:34:01.009Z,62.20
2018-11-28T16:36:29.854Z,62.62
2018-11-28T16:38:58.554Z,62.92
2018-11-28T16:41:27.366Z,62.76
2018-11-28T16:43:56.043Z,63.45
2018-11-28T16:46:24.762Z,63.63
2018-11-28T16:48:53.357Z,63.06
2018-11-28T16:51:21.931Z,63.77
2018-11-28T16:53:51.092Z,63.50
2018-11-28T16:56:19.743Z,63.88
2018-11-28T16:58:48.368Z,63.76
2018-11-28T17:01:17.001Z,63.72
2018-11-28T17:03:45.553Z,63.63
2018-11-28T17:06:14.453Z,63.81
2018-11-28T17:08:43.318Z,64.38
2018-11-28T17:11:12.193Z,64.59
2018-11-28T17:13:40.762Z,64.42
2018-11-28T17:16:09.363Z,64.61
2018-11-28T17:18:37.968Z,64.19
2018-11-28T17:21:06.718Z,64.95
2018-11-28T17:23:35.802Z,64.44
2018-11-28T17:26:04.460Z,65.04
2018-11-28T17:28:33.283Z,64.49
2018-11-28T17:31:02.451Z,64.86
2018-11-28T17:33:31.162Z,65.45
2018-11-28T17:35:59.849Z,65.26
2018-11-28T17:38:28.580Z,66.10
2018-11-28T17:40:57.390Z,65.91
2018-11-28T17:43:26.182Z,66.14
2018-11-28T17:45:58.320Z,65.85
2018-11-28T17:48:30.968Z,66.21
2018-11-28T17:50:59.790Z,66.07
2018-11-28T17:53:28.537Z,66.29
2018-11-28T17:55:58.216Z,66.33
2018-11-28T17:58:26.791Z,66.24
2018-11-28T18:00:55.446Z,66.43
2018-11-28T18:03:24.561Z,66.68
2018-11-28T18:05:53.498Z,66.77
2018-11-28T18:08:22.061Z,66.76
2018-11-28T18:10:50.834Z,66.66
2018-11-28T18:13:19.705Z,66.36
2018-11-28T18:15:54.014Z,66.73
2018-11-28T18:18:23.976Z,66.80
2018-11-28T18:20:52.839Z,66.95
2018-11-28T18:23:21.818Z,66.56
2018-11-28T18:25:50.623Z,66.59
2018-11-28T18:28:19.547Z,67.25
2018-11-28T18:30:48.421Z,67.08
2018-11-28T18:33:17.288Z,66.90
2018-11-28T18:35:46.153Z,66.54
2018-11-28T18:38:14.993Z,66.76
2018-11-28T18:40:43.872Z,66.54
2018-11-28T18:43:12.868Z,66.51
2018-11-28T18:45:47.288Z,66.25
2018-11-28T18:48:16.075Z,66.33
2018-11-28T18:50:44.898Z,66.39
2018-11-28T18:53:13.617Z,66.27
2018-11-28T18:55:42.348Z,66.22
2018-11-28T18:58:12.164Z,66.72
2018-11-28T19:00:40.971Z,66.58
2018-11-28T19:03:09.813Z,66.36
2018-11-28T19:05:38.806Z,66.22
2018-11-28T19:08:08.517Z,65.79
2018-11-28T19:10:37.309Z,65.85
2018-11-28T19:13:05.994Z,65.71
2018-11-28T19:15:34.925Z,66.25
2018-11-28T19:18:03.565Z,66.09
2018-11-28T19:20:32.488Z,66.04
2018-11-28T19:23:01.373Z,65.77
2018-11-28T19:25:30.384Z,66.16
2018-11-28T19:27:59.561Z,65.76
2018-11-28T19:30:36.887Z,65.87
2018-11-28T19:33:11.817Z,66.66
2018-11-28T19:35:58.603Z,66.85
2018-11-28T19:38:27.795Z,66.77
2018-11-28T19:41:02.878Z,66.35
2018-11-28T19:43:37.169Z,66.48
2018-11-28T19:46:06.452Z,66.34
2018-11-28T19:48:35.568Z,66.28
2018-11-28T19:51:09.906Z,66.20
2018-11-28T19:53:40.804Z,66.25
2018-11-28T19:56:10.226Z,65.83
2018-11-28T19:58:39.554Z,66.02
2018-11-28T20:01:09.428Z,65.76
2018-11-28T20:03:42.914Z,65.52
2018-11-28T20:06:12.594Z,65.89
2018-11-28T20:08:42.345Z,65.67
2018-11-28T20:11:11.260Z,66.03
2018-11-28T20:13:41.132Z,66.02
2018-11-28T20:16:09.915Z,65.78
2018-11-28T20:18:38.730Z,65.85
2018-11-28T20:21:07.464Z,65.76
2018-11-28T20:23:37.402Z,65.42
2018-11-28T20:26:07.833Z,65.77
2018-11-28T20:28:36.795Z,65.73
2018-11-28T20:31:06.332Z,65.55
2018-11-28T20:33:35.024Z,65.25
2018-11-28T20:36:04.087Z,65.28
2018-11-28T20:38:34.250Z,65.64
2018-11-28T20:41:03.031Z,65.28
2018-11-28T20:43:31.909Z,65.26
2018-11-28T20:46:00.739Z,65.02
2018-11-28T20:48:29.553Z,64.96
2018-11-28T20:50:58.226Z,65.59
2018-11-28T20:53:26.929Z,65.12
2018-11-28T20:55:55.591Z,65.21
2018-11-28T20:58:24.195Z,65.29
2018-11-28T21:00:52.952Z,65.44
2018-11-28T21:03:21.527Z,65.12
2018-11-28T21:05:50.219Z,65.21
2018-11-28T21:08:18.863Z,65.35
2018-11-28T21:10:47.696Z,65.26
2018-11-28T21:13:16.376Z,65.32
2018-11-28T21:15:46.086Z,65.19
2018-11-28T21:18:14.893Z,64.91
2018-11-28T21:20:45.105Z,65.01
2018-11-28T21:23:16.037Z,64.91
2018-11-28T21:25:44.815Z,64.69
2018-11-28T21:28:13.506Z,64.88
2018-11-28T21:30:42.288Z,64.70
2018-11-28T21:33:15.115Z,64.67
2018-11-28T21:35:52.575Z,64.28
2018-11-28T21:38:21.267Z,64.80
2018-11-28T21:40:49.996Z,64.93
2018-11-28T21:43:18.671Z,64.71
2018-11-28T21:45:47.368Z,64.49
2018-11-28T21:48:16.026Z,64.55
2018-11-28T21:50:44.778Z,64.24
2018-11-28T21:53:13.382Z,64.49
2018-11-28T21:55:42.174Z,64.42
2018-11-28T21:58:10.828Z,64.19
2018-11-28T22:00:39.445Z,64.17
2018-11-28T22:03:08.228Z,64.38
2018-11-28T22:05:36.808Z,64.31
2018-11-28T22:08:05.559Z,64.46
2018-11-28T22:10:34.242Z,63.89
2018-11-28T22:13:02.957Z,63.92
2018-11-28T22:15:31.633Z,64.26
2018-11-28T22:18:00.246Z,64.11
2018-11-28T22:20:28.924Z,63.91
2018-11-28T22:22:57.597Z,64.21
2018-11-28T22:25:27.200Z,64.16
2018-11-28T22:27:56.037Z,64.02
2018-11-28T22:30:28.786Z,64.45
2018-11-28T22:32:57.899Z,64.21
2018-11-28T22:35:26.516Z,64.36
2018-11-28T22:37:55.185Z,64.08
2018-11-28T22:40:25.979Z,63.99
2018-11-28T22:42:54.581Z,63.92
2018-11-28T22:45:24.444Z,63.95
2018-11-28T22:47:53.132Z,63.66
2018-11-28T22:50:21.763Z,63.79
2018-11-28T22:52:50.468Z,64.02
2018-11-28T22:55:19.057Z,63.58
2018-11-28T22:57:47.738Z,63.97
2018-11-28T23:00:30.998Z,63.78
2018-11-28T23:03:01.044Z,64.12
2018-11-28T23:05:40.717Z,63.87
2018-11-28T23:08:11.597Z,63.56
2018-11-28T23:10:40.345Z,63.74
2018-11-28T23:13:11.745Z,63.49
2018-11-28T23:15:40.316Z,64.06
2018-11-28T23:18:10.058Z,63.81
2018-11-28T23:20:38.697Z,63.73
2018-11-28T23:23:08.374Z,64.22
2018-11-28T23:25:37.565Z,63.96
2018-11-28T23:28:06.683Z,63.76
2018-11-28T23:30:35.335Z,63.80
2018-11-28T23:33:04.481Z,63.59
2018-11-28T23:35:33.190Z,63.78
2018-11-28T23:38:01.824Z,63.81
2018-11-28T23:40:30.479Z,63.73
2018-11-28T23:42:59.134Z,63.83
2018-11-28T23:45:27.861Z,63.74
2018-11-28T23:47:56.537Z,63.51
2018-11-28T23:50:26.026Z,63.67
2018-11-28T23:52:55.715Z,63.71
2018-11-28T23:55:26.249Z,63.70
2018-11-28T23:57:55.078Z,63.74
